createdAt,value
2023-03-07T00:00:58.250Z,19.90
2023-03-07T00:06:07.222Z,19.80
2023-03-07T00:11:14.044Z,19.80
2023-03-07T00:16:23.285Z,19.80
2023-03-07T00:21:37.017Z,19.90
2023-03-07T00:26:43.097Z,20.00
2023-03-07T00:31:51.113Z,20.00
2023-03-07T00:36:57.536Z,20.10
2023-03-07T00:42:04.200Z,20.20
2023-03-07T00:47:10.892Z,20.30
2023-03-07T00:52:18.391Z,20.30
2023-03-07T00:57:26.021Z,20.30
2023-03-07T01:02:32.385Z,20.60
2023-03-07T01:07:38.895Z,20.60
2023-03-07T01:12:46.113Z,20.70
2023-03-07T01:17:56.390Z,20.80
2023-03-07T01:23:03.761Z,20.70
2023-03-07T01:28:12.406Z,20.70
2023-03-07T01:33:18.763Z,20.80
2023-03-07T01:38:24.656Z,20.70
2023-03-07T01:43:40.517Z,21.00
2023-03-07T01:49:33.196Z,21.10
2023-03-07T01:54:50.495Z,21.10
2023-03-07T02:00:07.814Z,21.00
2023-03-07T02:05:28.424Z,21.00
2023-03-07T02:10:37.577Z,21.10
2023-03-07T02:15:54.444Z,21.10
2023-03-07T02:21:07.314Z,21.20
2023-03-07T02:26:24.707Z,21.70
2023-03-07T02:31:32.208Z,22.00
2023-03-07T02:36:39.861Z,22.00
2023-03-07T02:42:09.778Z,22.20
2023-03-07T02:47:24.323Z,22.30
2023-03-07T02:52:31.615Z,22.50
2023-03-07T02:57:38.821Z,22.80
2023-03-07T03:02:45.922Z,23.30
2023-03-07T03:07:52.204Z,23.80
2023-03-07T03:12:58.974Z,24.10
2023-03-07T03:18:06.077Z,24.20
2023-03-07T03:23:12.576Z,24.20
2023-03-07T03:28:19.145Z,24.20
2023-03-07T03:33:27.740Z,24.50
2023-03-07T03:38:35.294Z,24.90
2023-03-07T03:43:41.859Z,25.70
2023-03-07T03:48:58.978Z,26.10
2023-03-07T03:54:06.731Z,25.70
2023-03-07T03:59:14.965Z,25.50
2023-03-07T04:04:22.145Z,25.40
2023-03-07T04:09:34.980Z,25.50
2023-03-07T04:14:42.418Z,25.40
2023-03-07T04:19:47.822Z,25.80
2023-03-07T04:24:54.482Z,25.70
2023-03-07T04:30:01.347Z,25.70
2023-03-07T04:35:11.735Z,25.70
2023-03-07T04:40:18.604Z,25.90
2023-03-07T04:45:24.830Z,26.10
2023-03-07T04:50:32.464Z,26.40
2023-03-07T04:55:39.478Z,26.70
2023-03-07T05:00:47.797Z,26.90
2023-03-07T05:05:55.052Z,26.40
2023-03-07T05:11:01.654Z,26.30
2023-03-07T05:16:09.360Z,26.30
2023-03-07T05:21:16.211Z,27.30
2023-03-07T05:26:22.647Z,28.20
2023-03-07T05:31:29.580Z,28.70
2023-03-07T05:36:36.541Z,29.10
2023-03-07T05:41:43.303Z,29.20
2023-03-07T05:46:50.780Z,29.00
2023-03-07T05:51:57.015Z,28.50
2023-03-07T05:57:06.723Z,28.90
2023-03-07T06:02:13.397Z,28.90
2023-03-07T06:07:20.215Z,28.80
2023-03-07T06:12:27.358Z,28.80
2023-03-07T06:17:33.982Z,29.50
2023-03-07T06:22:40.833Z,29.20
2023-03-07T06:27:47.561Z,28.60
2023-03-07T06:32:53.727Z,28.50
2023-03-07T06:38:00.578Z,29.00
2023-03-07T06:43:07.587Z,29.00
2023-03-07T06:48:14.119Z,28.60
2023-03-07T06:53:21.368Z,29.10
2023-03-07T06:58:28.567Z,28.70
2023-03-07T07:03:35.143Z,28.90
2023-03-07T07:08:41.420Z,29.40
2023-03-07T07:13:49.298Z,29.70
2023-03-07T07:18:57.895Z,30.10
2023-03-07T07:24:04.865Z,29.20
2023-03-07T07:29:22.976Z,28.80
2023-03-07T07:34:31.213Z,29.00
2023-03-07T07:39:37.751Z,29.30
2023-03-07T07:44:52.852Z,29.70
2023-03-07T07:50:16.088Z,29.80
2023-03-07T07:55:22.632Z,29.40
2023-03-07T08:00:29.620Z,29.30
2023-03-07T08:05:35.973Z,29.30
2023-03-07T08:10:45.179Z,29.60
2023-03-07T08:15:51.559Z,29.60
2023-03-07T08:21:02.322Z,29.50
2023-03-07T08:26:11.857Z,28.70
2023-03-07T08:31:25.258Z,28.20
2023-03-07T08:36:31.761Z,28.00
2023-03-07T08:41:38.225Z,27.80
2023-03-07T08:46:45.681Z,27.80
2023-03-07T08:51:53.955Z,27.50
2023-03-07T08:57:00.503Z,27.20
2023-03-07T09:02:06.811Z,26.90
2023-03-07T09:07:13.049Z,26.70
2023-03-07T09:12:21.251Z,26.70
2023-03-07T09:17:27.724Z,26.40
2023-03-07T09:22:34.616Z,26.10
2023-03-07T09:27:41.490Z,26.10
2023-03-07T09:32:48.131Z,25.90
2023-03-07T09:37:54.524Z,25.70
2023-03-07T09:43:07.968Z,25.40
2023-03-07T09:48:27.907Z,25.30
2023-03-07T09:53:47.596Z,25.10
2023-03-07T09:59:22.431Z,25.10
2023-03-07T10:04:42.887Z,25.00
2023-03-07T10:09:49.835Z,25.00
2023-03-07T10:15:30.875Z,25.10
2023-03-07T10:20:59.821Z,25.00
2023-03-07T10:26:21.339Z,24.90
2023-03-07T10:31:41.915Z,24.80
2023-03-07T10:37:00.163Z,24.50
2023-03-07T10:42:20.053Z,24.30
2023-03-07T10:47:30.474Z,24.00
2023-03-07T10:53:04.685Z,23.70
2023-03-07T10:58:28.890Z,23.60
2023-03-07T11:03:58.581Z,23.40
2023-03-07T11:09:30.479Z,23.40
2023-03-07T11:15:20.513Z,23.30
2023-03-07T11:20:49.036Z,23.20
2023-03-07T11:25:57.962Z,23.20
2023-03-07T11:31:23.701Z,23.10
2023-03-07T11:43:17.009Z,22.90
2023-03-07T11:48:55.164Z,22.70
2023-03-07T11:54:09.143Z,22.70
2023-03-07T11:59:41.956Z,22.60
2023-03-07T12:04:55.069Z,22.50
2023-03-07T12:11:15.097Z,22.50
2023-03-07T12:16:42.753Z,22.40
2023-03-07T12:21:52.988Z,22.40
2023-03-07T12:33:47.179Z,22.30
2023-03-07T12:39:18.400Z,22.30
2023-03-07T12:44:48.308Z,22.20
2023-03-07T12:50:17.539Z,22.20
2023-03-07T12:55:32.674Z,22.10
2023-03-07T13:00:49.003Z,22.00
2023-03-07T13:06:04.345Z,21.90
2023-03-07T13:17:02.386Z,21.90
2023-03-07T13:22:19.581Z,21.80
2023-03-07T13:27:57.535Z,21.80
2023-03-07T13:34:19.777Z,21.70
2023-03-07T13:40:06.792Z,21.70
2023-03-07T13:45:59.863Z,21.60
2023-03-07T13:51:20.162Z,21.50
2023-03-07T13:57:35.806Z,21.40
2023-03-07T14:02:59.017Z,21.30
2023-03-07T14:08:33.027Z,21.20
2023-03-07T14:14:28.796Z,21.10
2023-03-07T14:20:00.519Z,21.10
2023-03-07T14:25:16.300Z,21.10
2023-03-07T14:30:32.288Z,21.00
2023-03-07T14:35:55.725Z,20.90
2023-03-07T14:41:27.487Z,20.90
2023-03-07T14:53:30.834Z,21.00
2023-03-07T15:05:20.815Z,21.00
2023-03-07T15:17:25.257Z,20.90
2023-03-07T15:22:41.839Z,21.00
2023-03-07T15:27:49.897Z,21.00
2023-03-07T15:33:18.721Z,21.00
2023-03-07T15:38:28.059Z,21.10
2023-03-07T15:43:38.056Z,21.10
2023-03-07T15:48:44.936Z,21.10
2023-03-07T15:54:23.889Z,21.20
2023-03-07T16:05:35.330Z,21.00
2023-03-07T16:17:03.600Z,21.30
2023-03-07T16:22:23.382Z,21.30
2023-03-07T16:27:30.548Z,21.20
2023-03-07T16:32:43.573Z,21.30
2023-03-07T16:38:24.937Z,21.10
2023-03-07T16:43:46.160Z,21.10
2023-03-07T16:48:54.326Z,21.10
2023-03-07T16:54:01.684Z,20.90
2023-03-07T16:59:10.270Z,20.80
2023-03-07T17:04:17.403Z,21.00
2023-03-07T17:09:24.704Z,20.90
2023-03-07T17:14:31.670Z,21.00
2023-03-07T17:19:54.140Z,21.00
2023-03-07T17:25:11.016Z,21.00
2023-03-07T17:30:29.064Z,21.00
2023-03-07T17:35:41.061Z,21.20
2023-03-07T17:40:47.118Z,21.20
2023-03-07T17:45:52.534Z,21.10
2023-03-07T17:50:58.326Z,21.10
2023-03-07T17:56:15.802Z,21.10
2023-03-07T18:01:21.965Z,21.10
2023-03-07T18:06:28.974Z,21.20
2023-03-07T18:11:36.940Z,21.00
2023-03-07T18:16:45.587Z,20.90
2023-03-07T18:21:53.629Z,21.00
2023-03-07T18:27:05.067Z,21.00
2023-03-07T18:32:11.109Z,20.90
2023-03-07T18:37:17.980Z,20.90
2023-03-07T18:42:24.501Z,20.90
2023-03-07T18:47:31.100Z,20.90
2023-03-07T18:52:37.654Z,20.90
2023-03-07T18:57:44.435Z,20.80
2023-03-07T19:02:50.873Z,20.80
2023-03-07T19:07:57.485Z,20.80
2023-03-07T19:13:03.863Z,20.90
2023-03-07T19:18:10.776Z,20.80
2023-03-07T19:23:17.876Z,20.80
2023-03-07T19:28:24.306Z,20.70
2023-03-07T19:33:30.592Z,20.70
2023-03-07T19:38:37.547Z,20.70
2023-03-07T19:43:44.884Z,20.70
2023-03-07T19:48:51.250Z,20.70
2023-03-07T19:53:58.259Z,20.70
2023-03-07T19:59:08.267Z,20.80
2023-03-07T20:04:16.186Z,20.80
2023-03-07T20:09:22.583Z,20.70
2023-03-07T20:14:29.147Z,20.70
2023-03-07T20:19:35.406Z,20.70
2023-03-07T20:24:41.611Z,20.70
2023-03-07T20:29:47.633Z,20.60
2023-03-07T20:34:55.352Z,20.60
2023-03-07T20:40:04.740Z,20.50
2023-03-07T20:45:12.018Z,20.50
2023-03-07T20:50:18.689Z,20.60
2023-03-07T20:55:24.995Z,20.60
2023-03-07T21:00:34.083Z,20.60
2023-03-07T21:05:40.749Z,20.60
2023-03-07T21:10:47.002Z,20.70
2023-03-07T21:15:59.940Z,20.60
2023-03-07T21:21:09.469Z,20.60
2023-03-07T21:26:18.259Z,20.70
2023-03-07T21:31:27.034Z,20.70
2023-03-07T21:43:42.768Z,20.60
2023-03-07T21:48:49.090Z,20.60
2023-03-07T21:53:54.760Z,20.60
2023-03-07T22:05:49.406Z,20.50
2023-03-07T22:11:03.205Z,20.50
2023-03-07T22:16:13.931Z,20.50
2023-03-07T22:21:20.338Z,20.50
2023-03-07T22:26:27.171Z,20.50
2023-03-07T22:31:33.809Z,20.50
2023-03-07T22:36:40.073Z,20.40
2023-03-07T22:41:46.788Z,20.40
2023-03-07T22:46:53.569Z,20.50
2023-03-07T22:52:04.088Z,20.40
2023-03-07T22:57:10.298Z,20.50
2023-03-07T23:02:17.007Z,20.50
2023-03-07T23:07:23.122Z,20.50
2023-03-07T23:12:28.570Z,20.50
2023-03-07T23:17:34.920Z,20.50
2023-03-07T23:22:42.589Z,20.50
2023-03-07T23:27:48.757Z,20.50
2023-03-07T23:32:54.482Z,20.60
2023-03-07T23:38:01.544Z,20.60
2023-03-07T23:43:07.673Z,20.60
2023-03-07T23:48:13.069Z,20.70
2023-03-07T23:53:19.803Z,20.70
2023-03-07T23:58:26.694Z,20.70
